createdAt,value
2022-12-18T00:02:02.027Z,44.50
2022-12-18T00:05:04.333Z,48.87
2022-12-18T00:08:09.279Z,45.65
2022-12-18T00:11:13.085Z,42.33
2022-12-18T00:14:15.237Z,29.90
2022-12-18T00:17:17.315Z,38.85
2022-12-18T00:20:26.459Z,31.27
2022-12-18T00:23:28.865Z,31.15
2022-12-18T00:26:32.553Z,29.07
2022-12-18T00:29:37.213Z,49.85
2022-12-18T00:32:39.311Z,33.50
2022-12-18T00:35:41.362Z,38.30
2022-12-18T00:38:43.877Z,41.05
2022-12-18T00:42:04.656Z,42.15
2022-12-18T00:45:12.383Z,36.97
2022-12-18T00:48:15.361Z,37.35
2022-12-18T00:51:17.421Z,38.35
2022-12-18T00:54:19.643Z,34.88
2022-12-18T00:57:25.910Z,38.10
2022-12-18T01:00:28.117Z,32.88
2022-12-18T01:03:30.333Z,39.92
2022-12-18T01:06:32.588Z,42.63
2022-12-18T01:09:35.702Z,42.13
2022-12-18T01:12:37.905Z,40.80
2022-12-18T01:15:40.990Z,39.28
2022-12-18T01:18:46.513Z,39.15
2022-12-18T01:21:48.618Z,37.33
2022-12-18T01:24:50.732Z,40.38
2022-12-18T01:27:52.869Z,39.40
2022-12-18T01:30:54.972Z,40.72
2022-12-18T01:33:57.504Z,34.78
2022-12-18T01:36:59.587Z,41.47
2022-12-18T01:40:02.041Z,38.03
2022-12-18T01:43:04.433Z,42.00
2022-12-18T01:46:06.546Z,35.15
2022-12-18T01:49:08.662Z,33.45
2022-12-18T01:52:10.817Z,38.40
2022-12-18T01:55:13.462Z,36.42
2022-12-18T01:58:16.283Z,28.07
2022-12-18T02:01:18.907Z,33.10
2022-12-18T02:04:25.317Z,30.70
2022-12-18T02:07:49.569Z,32.97
2022-12-18T02:10:52.556Z,34.85
2022-12-18T02:13:59.846Z,34.58
2022-12-18T02:17:04.880Z,28.60
2022-12-18T02:20:07.804Z,32.37
2022-12-18T02:23:39.571Z,35.75
2022-12-18T02:26:46.686Z,30.15
2022-12-18T02:29:57.838Z,42.73
2022-12-18T02:33:02.075Z,41.70
2022-12-18T02:36:06.410Z,44.17
2022-12-18T02:39:10.614Z,40.33
2022-12-18T02:42:17.270Z,40.35
2022-12-18T02:45:19.433Z,31.60
2022-12-18T02:48:33.600Z,41.35
2022-12-18T02:51:56.185Z,33.43
2022-12-18T02:55:03.137Z,37.67
2022-12-18T02:58:17.309Z,30.60
2022-12-18T03:01:32.623Z,28.60
2022-12-18T03:04:53.866Z,38.67
2022-12-18T03:07:59.436Z,30.63
2022-12-18T03:11:07.113Z,38.28
2022-12-18T03:14:10.501Z,34.75
2022-12-18T03:17:18.603Z,38.88
2022-12-18T03:20:23.042Z,44.95
2022-12-18T03:23:26.908Z,44.83
2022-12-18T03:26:30.211Z,41.83
2022-12-18T03:29:42.009Z,39.30
2022-12-18T03:33:00.401Z,42.13
2022-12-18T03:36:03.716Z,43.25
2022-12-18T03:39:06.075Z,44.67
2022-12-18T03:42:18.897Z,45.63
2022-12-18T03:45:35.120Z,44.88
2022-12-18T03:48:52.833Z,45.65
2022-12-18T03:52:01.427Z,43.53
2022-12-18T03:55:04.456Z,41.50
2022-12-18T03:58:08.365Z,44.70
2022-12-18T04:01:32.735Z,46.47
2022-12-18T04:04:36.755Z,53.60
2022-12-18T04:07:40.294Z,61.20
2022-12-18T04:10:44.602Z,52.45
2022-12-18T04:13:48.106Z,48.25
2022-12-18T04:16:57.672Z,47.35
2022-12-18T04:20:05.807Z,48.58
2022-12-18T04:23:08.047Z,45.88
2022-12-18T04:26:10.246Z,43.30
2022-12-18T04:29:26.956Z,49.28
2022-12-18T04:32:29.277Z,43.28
2022-12-18T04:35:31.438Z,41.40
2022-12-18T04:38:33.698Z,42.83
2022-12-18T04:41:42.298Z,42.75
2022-12-18T04:44:45.741Z,42.42
2022-12-18T04:47:47.834Z,47.40
2022-12-18T04:50:50.326Z,43.22
2022-12-18T04:53:52.449Z,50.55
2022-12-18T04:56:54.691Z,48.67
2022-12-18T04:59:57.475Z,48.25
2022-12-18T05:03:01.634Z,55.30
2022-12-18T05:06:05.074Z,48.20
2022-12-18T05:09:07.295Z,50.50
2022-12-18T05:12:09.362Z,53.17
2022-12-18T05:15:11.786Z,58.33
2022-12-18T05:18:13.874Z,51.83
2022-12-18T05:21:16.171Z,56.28
2022-12-18T05:24:18.284Z,62.85
2022-12-18T05:27:21.728Z,57.20
2022-12-18T05:30:24.249Z,54.25
2022-12-18T05:33:27.629Z,51.75
2022-12-18T05:36:29.805Z,57.23
2022-12-18T05:39:32.089Z,52.33
2022-12-18T05:42:34.251Z,56.05
2022-12-18T05:45:38.209Z,57.13
2022-12-18T05:48:41.096Z,54.30
2022-12-18T05:51:43.213Z,59.03
2022-12-18T05:54:45.450Z,70.95
2022-12-18T05:57:47.570Z,82.73
2022-12-18T06:00:50.017Z,63.45
2022-12-18T06:03:52.299Z,64.15
2022-12-18T06:06:54.486Z,61.30
2022-12-18T06:09:56.990Z,65.68
2022-12-18T06:12:59.248Z,64.43
2022-12-18T06:16:07.540Z,70.65
2022-12-18T06:19:14.960Z,69.57
2022-12-18T06:22:17.933Z,67.95
2022-12-18T06:25:20.101Z,66.35
2022-12-18T06:28:22.293Z,61.73
2022-12-18T06:31:24.863Z,68.22
2022-12-18T06:34:27.093Z,62.60
2022-12-18T06:37:29.314Z,64.60
2022-12-18T06:40:31.467Z,53.85
2022-12-18T06:43:33.573Z,58.80
2022-12-18T06:46:35.774Z,75.97
2022-12-18T06:49:37.879Z,73.55
2022-12-18T06:52:41.264Z,64.40
2022-12-18T06:55:43.567Z,56.88
2022-12-18T06:58:45.667Z,58.03
2022-12-18T07:01:47.965Z,44.40
2022-12-18T07:05:11.030Z,57.83
2022-12-18T07:08:13.463Z,53.30
2022-12-18T07:11:16.037Z,59.10
2022-12-18T07:14:18.133Z,59.40
2022-12-18T07:17:20.284Z,77.07
2022-12-18T07:20:22.366Z,84.50
2022-12-18T07:23:24.713Z,83.78
2022-12-18T07:26:27.358Z,79.80
2022-12-18T07:29:29.540Z,74.10
2022-12-18T07:32:31.633Z,86.30
2022-12-18T07:35:34.209Z,89.05
2022-12-18T07:38:36.641Z,88.73
2022-12-18T07:41:42.484Z,81.90
2022-12-18T07:44:51.604Z,93.40
2022-12-18T07:47:53.635Z,80.70
2022-12-18T07:50:59.230Z,82.18
2022-12-18T07:54:01.344Z,85.30
2022-12-18T07:57:03.447Z,87.35
2022-12-18T08:00:05.835Z,89.17
2022-12-18T08:03:14.372Z,84.22
2022-12-18T08:06:16.502Z,77.70
2022-12-18T08:09:18.800Z,88.07
2022-12-18T08:12:21.007Z,77.75
2022-12-18T08:15:23.149Z,83.60
2022-12-18T08:18:25.904Z,81.07
2022-12-18T08:21:28.992Z,77.50
2022-12-18T08:24:31.108Z,80.38
2022-12-18T08:27:33.418Z,80.15
2022-12-18T08:30:36.715Z,77.67
2022-12-18T08:33:40.427Z,82.13
2022-12-18T08:36:43.611Z,78.63
2022-12-18T08:39:45.808Z,76.37
2022-12-18T08:43:06.829Z,75.18
2022-12-18T08:46:08.999Z,71.65
2022-12-18T08:49:12.059Z,70.38
2022-12-18T08:52:17.357Z,68.00
2022-12-18T08:55:19.621Z,70.95
2022-12-18T08:58:22.775Z,70.45
2022-12-18T09:01:25.255Z,75.20
2022-12-18T09:04:27.462Z,75.50
2022-12-18T09:07:29.643Z,69.40
2022-12-18T09:10:33.009Z,67.87
2022-12-18T09:13:35.238Z,71.85
2022-12-18T09:16:37.427Z,67.30
2022-12-18T09:19:39.543Z,72.63
2022-12-18T09:22:41.712Z,67.43
2022-12-18T09:25:43.795Z,68.63
2022-12-18T09:28:46.156Z,69.55
2022-12-18T09:31:48.334Z,75.77
2022-12-18T09:34:50.519Z,71.32
2022-12-18T09:37:52.574Z,72.80
2022-12-18T09:40:57.073Z,67.88
2022-12-18T09:44:02.033Z,63.60
2022-12-18T09:47:19.390Z,63.15
2022-12-18T09:50:28.037Z,60.22
2022-12-18T09:53:33.057Z,67.90
2022-12-18T09:56:41.149Z,57.03
2022-12-18T09:59:45.045Z,64.70
2022-12-18T10:02:47.957Z,62.78
2022-12-18T10:05:59.382Z,67.28
2022-12-18T10:09:07.398Z,63.78
2022-12-18T10:12:15.009Z,61.42
2022-12-18T10:15:17.142Z,65.80
2022-12-18T10:18:22.014Z,65.65
2022-12-18T10:21:38.836Z,68.43
2022-12-18T10:24:46.039Z,65.80
2022-12-18T10:27:48.384Z,66.13
2022-12-18T10:30:50.596Z,67.55
2022-12-18T10:33:54.950Z,69.45
2022-12-18T10:36:58.479Z,69.85
2022-12-18T10:40:22.048Z,66.03
2022-12-18T10:43:28.872Z,63.60
2022-12-18T10:46:31.139Z,62.97
2022-12-18T10:49:34.480Z,68.95
2022-12-18T10:52:39.617Z,70.93
2022-12-18T10:55:46.837Z,64.00
2022-12-18T10:59:02.535Z,68.03
2022-12-18T11:02:24.756Z,61.65
2022-12-18T11:05:28.649Z,64.28
2022-12-18T11:08:31.284Z,68.13
2022-12-18T11:11:34.256Z,60.08
2022-12-18T11:14:46.739Z,63.15
2022-12-18T11:17:50.273Z,65.47
2022-12-18T11:20:58.283Z,64.80
2022-12-18T11:24:00.892Z,63.90
2022-12-18T11:27:04.487Z,62.60
2022-12-18T11:30:25.311Z,65.22
2022-12-18T11:33:27.857Z,64.40
2022-12-18T11:36:31.974Z,58.65
2022-12-18T11:39:39.662Z,58.75
2022-12-18T11:43:17.451Z,56.00
2022-12-18T11:46:26.357Z,48.22
2022-12-18T11:49:37.974Z,58.83
2022-12-18T11:52:41.289Z,62.63
2022-12-18T11:55:46.578Z,57.80
2022-12-18T11:59:08.957Z,64.95
2022-12-18T12:02:11.148Z,60.13
2022-12-18T12:05:16.482Z,60.20
2022-12-18T12:08:21.738Z,62.63
2022-12-18T12:11:30.182Z,63.65
2022-12-18T12:14:35.099Z,64.70
2022-12-18T12:17:50.245Z,59.60
2022-12-18T12:21:10.657Z,63.20
2022-12-18T12:24:19.109Z,57.92
2022-12-18T12:27:34.490Z,58.78
2022-12-18T12:30:57.330Z,60.17
2022-12-18T12:34:08.165Z,59.63
2022-12-18T12:37:19.910Z,61.15
2022-12-18T12:40:51.301Z,64.13
2022-12-18T12:43:50.991Z,61.33
2022-12-18T12:46:56.259Z,63.22
2022-12-18T12:49:59.722Z,65.88
2022-12-18T12:53:02.369Z,64.30
2022-12-18T12:56:05.481Z,63.67
2022-12-18T12:59:35.075Z,62.38
2022-12-18T13:02:56.007Z,65.90
2022-12-18T13:06:04.481Z,66.40
2022-12-18T13:09:07.567Z,67.88
2022-12-18T13:12:34.972Z,67.88
2022-12-18T13:15:46.751Z,67.93
2022-12-18T13:18:50.633Z,67.60
2022-12-18T13:21:57.353Z,62.83
2022-12-18T13:25:00.283Z,57.90
2022-12-18T13:28:10.292Z,69.95
2022-12-18T13:31:13.119Z,64.43
2022-12-18T13:34:30.899Z,68.07
2022-12-18T13:37:33.432Z,65.78
2022-12-18T13:40:47.826Z,72.53
2022-12-18T13:43:51.358Z,67.60
2022-12-18T13:46:53.772Z,69.88
2022-12-18T13:49:57.258Z,70.30
2022-12-18T13:52:59.508Z,71.68
2022-12-18T13:56:02.762Z,68.73
2022-12-18T13:59:13.550Z,65.93
2022-12-18T14:02:18.083Z,78.15
2022-12-18T14:05:31.363Z,79.13
2022-12-18T14:08:39.576Z,72.77
2022-12-18T14:11:46.732Z,74.28
2022-12-18T14:14:51.595Z,66.22
2022-12-18T14:18:01.971Z,71.60
2022-12-18T14:21:04.794Z,75.27
2022-12-18T14:24:09.927Z,71.20
2022-12-18T14:27:23.180Z,75.65
2022-12-18T14:30:39.665Z,75.93
2022-12-18T14:33:42.262Z,66.97
2022-12-18T14:36:53.341Z,71.47
2022-12-18T14:39:57.615Z,76.55
2022-12-18T14:42:59.708Z,74.47
2022-12-18T14:46:02.692Z,68.77
2022-12-18T14:49:20.309Z,72.55
2022-12-18T14:52:27.692Z,69.95
2022-12-18T14:55:29.869Z,68.70
2022-12-18T14:58:32.458Z,70.23
2022-12-18T15:01:38.454Z,68.43
2022-12-18T15:04:43.167Z,76.10
2022-12-18T15:07:50.010Z,70.20
2022-12-18T15:10:52.367Z,72.40
2022-12-18T15:13:54.792Z,73.68
2022-12-18T15:16:57.575Z,81.88
2022-12-18T15:20:04.380Z,77.47
2022-12-18T15:23:14.196Z,76.20
2022-12-18T15:26:17.383Z,69.15
2022-12-18T15:29:24.372Z,61.95
2022-12-18T15:32:26.926Z,61.13
2022-12-18T15:35:29.247Z,69.37
2022-12-18T15:38:32.319Z,63.05
2022-12-18T15:41:36.033Z,62.47
2022-12-18T15:44:38.893Z,63.88
2022-12-18T15:47:42.684Z,67.65
2022-12-18T15:50:45.467Z,69.43
2022-12-18T15:53:52.504Z,68.30
2022-12-18T15:57:13.391Z,62.20
2022-12-18T16:00:16.065Z,62.67
2022-12-18T16:03:18.510Z,56.67
2022-12-18T16:06:21.792Z,63.93
2022-12-18T16:09:26.462Z,55.50
2022-12-18T16:12:29.042Z,51.65
2022-12-18T16:15:31.453Z,56.70
2022-12-18T16:18:33.821Z,53.70
2022-12-18T16:21:36.546Z,58.10
2022-12-18T16:24:39.966Z,56.10
2022-12-18T16:27:42.395Z,63.17
2022-12-18T16:30:45.982Z,66.82
2022-12-18T16:33:48.341Z,63.83
2022-12-18T16:36:51.034Z,62.93
2022-12-18T16:39:53.386Z,60.65
2022-12-18T16:42:55.759Z,63.33
2022-12-18T16:45:59.579Z,61.45
2022-12-18T16:49:01.901Z,60.38
2022-12-18T16:52:05.333Z,64.65
2022-12-18T16:55:09.353Z,64.82
2022-12-18T16:58:11.507Z,54.60
2022-12-18T17:01:14.006Z,62.17
2022-12-18T17:04:17.247Z,65.00
2022-12-18T17:07:19.580Z,65.33
2022-12-18T17:10:22.212Z,60.20
2022-12-18T17:13:26.676Z,64.90
2022-12-18T17:16:30.106Z,57.53
2022-12-18T17:19:33.670Z,57.40
2022-12-18T17:22:36.046Z,62.65
2022-12-18T17:25:41.430Z,58.22
2022-12-18T17:28:43.996Z,65.13
2022-12-18T17:31:47.052Z,65.75
2022-12-18T17:34:49.454Z,68.22
2022-12-18T17:37:51.788Z,67.93
2022-12-18T17:40:53.956Z,63.00
2022-12-18T17:43:57.633Z,61.10
2022-12-18T17:46:59.757Z,55.53
2022-12-18T17:50:01.888Z,58.88
2022-12-18T17:53:04.272Z,58.10
2022-12-18T17:56:07.294Z,63.03
2022-12-18T17:59:10.729Z,66.97
2022-12-18T18:02:13.709Z,88.32
2022-12-18T18:05:16.625Z,85.38
2022-12-18T18:08:20.319Z,79.53
2022-12-18T18:11:43.062Z,84.63
2022-12-18T18:14:45.782Z,95.60
2022-12-18T18:17:48.586Z,115.82
2022-12-18T18:20:51.108Z,104.60
2022-12-18T18:23:59.220Z,84.88
2022-12-18T18:27:01.360Z,83.45
2022-12-18T18:30:04.122Z,107.73
2022-12-18T18:33:11.844Z,100.80
2022-12-18T18:36:14.674Z,112.72
2022-12-18T18:39:17.052Z,124.78
2022-12-18T18:42:19.324Z,110.03
2022-12-18T18:45:21.789Z,109.32
2022-12-18T18:48:24.514Z,122.85
2022-12-18T18:51:34.837Z,126.53
2022-12-18T18:54:37.658Z,117.15
2022-12-18T18:57:40.011Z,93.25
2022-12-18T19:00:42.388Z,96.63
2022-12-18T19:03:45.868Z,94.65
2022-12-18T19:06:49.356Z,87.50
2022-12-18T19:09:54.144Z,87.10
2022-12-18T19:13:15.551Z,82.30
2022-12-18T19:16:17.710Z,74.47
2022-12-18T19:19:21.094Z,74.25
2022-12-18T19:22:24.183Z,86.63
2022-12-18T19:25:40.327Z,127.20
2022-12-18T19:28:44.223Z,107.00
2022-12-18T19:31:47.021Z,61.60
2022-12-18T19:34:49.130Z,64.88
2022-12-18T19:37:52.476Z,71.65
2022-12-18T19:40:54.768Z,68.22
2022-12-18T19:43:58.528Z,71.18
2022-12-18T19:47:01.354Z,65.35
2022-12-18T19:50:04.500Z,66.65
2022-12-18T19:53:06.702Z,56.10
2022-12-18T19:56:13.106Z,55.40
2022-12-18T19:59:15.609Z,56.85
2022-12-18T20:02:19.153Z,59.13
2022-12-18T20:05:25.293Z,60.20
2022-12-18T20:08:27.929Z,60.13
2022-12-18T20:11:30.847Z,59.20
2022-12-18T20:14:32.930Z,59.90
2022-12-18T20:17:35.040Z,57.80
2022-12-18T20:20:37.703Z,55.80
2022-12-18T20:23:40.376Z,50.20
2022-12-18T20:26:43.261Z,45.20
2022-12-18T20:29:45.659Z,45.85
2022-12-18T20:32:47.799Z,50.73
2022-12-18T20:35:50.335Z,53.40
2022-12-18T20:38:55.784Z,50.15
2022-12-18T20:42:01.586Z,50.88
2022-12-18T20:45:04.048Z,56.72
2022-12-18T20:48:06.318Z,54.45
2022-12-18T20:51:10.742Z,63.97
2022-12-18T20:54:12.876Z,64.93
2022-12-18T20:57:15.025Z,83.53
2022-12-18T21:00:18.900Z,63.25
2022-12-18T21:03:23.463Z,60.17
2022-12-18T21:06:25.830Z,55.10
2022-12-18T21:09:28.277Z,51.67
2022-12-18T21:12:50.984Z,48.53
2022-12-18T21:16:04.061Z,44.70
2022-12-18T21:19:07.951Z,45.90
2022-12-18T21:22:10.209Z,49.40
2022-12-18T21:25:12.570Z,61.40
2022-12-18T21:28:14.838Z,51.45
2022-12-18T21:31:17.446Z,54.42
2022-12-18T21:34:20.964Z,64.63
2022-12-18T21:37:23.081Z,59.83
2022-12-18T21:40:25.411Z,69.88
2022-12-18T21:43:46.599Z,73.82
2022-12-18T21:46:55.194Z,77.03
2022-12-18T21:50:00.388Z,82.72
2022-12-18T21:53:02.581Z,88.43
2022-12-18T21:56:04.940Z,93.93
2022-12-18T21:59:07.067Z,86.95
2022-12-18T22:02:20.050Z,85.32
2022-12-18T22:05:22.489Z,81.67
2022-12-18T22:08:24.889Z,68.95
2022-12-18T22:11:27.161Z,55.17
2022-12-18T22:14:29.442Z,60.67
2022-12-18T22:17:31.958Z,59.45
2022-12-18T22:20:34.500Z,64.82
2022-12-18T22:23:36.583Z,67.45
2022-12-18T22:26:40.317Z,72.00
2022-12-18T22:30:01.368Z,76.78
2022-12-18T22:33:03.913Z,73.40
2022-12-18T22:36:06.978Z,75.87
2022-12-18T22:39:17.483Z,76.30
2022-12-18T22:42:19.806Z,76.55
2022-12-18T22:45:25.753Z,72.35
2022-12-18T22:48:28.085Z,75.05
2022-12-18T22:51:30.540Z,84.47
2022-12-18T22:54:32.816Z,82.75
2022-12-18T22:57:35.234Z,74.03
2022-12-18T23:00:38.827Z,75.95
2022-12-18T23:03:40.957Z,72.35
2022-12-18T23:06:43.865Z,69.87
2022-12-18T23:09:46.005Z,71.60
2022-12-18T23:12:50.427Z,74.15
2022-12-18T23:15:56.006Z,57.53
2022-12-18T23:18:58.108Z,59.47
2022-12-18T23:22:02.891Z,61.42
2022-12-18T23:25:06.458Z,64.43
2022-12-18T23:28:11.105Z,72.87
2022-12-18T23:31:17.749Z,73.97
2022-12-18T23:34:20.061Z,75.15
2022-12-18T23:37:49.794Z,79.77
2022-12-18T23:40:44.469Z,106.05
2022-12-18T23:43:48.710Z,106.35
2022-12-18T23:46:50.948Z,88.75
2022-12-18T23:49:53.184Z,76.72
2022-12-18T23:53:00.667Z,85.53
2022-12-18T23:56:08.500Z,88.45
2022-12-18T23:59:10.692Z,91.30
